createdAt,value
2019-04-14T00:00:25.098Z,3.72
2019-04-14T00:02:57.790Z,3.63
2019-04-14T00:05:26.009Z,3.59
2019-04-14T00:07:54.209Z,3.59
2019-04-14T00:10:22.566Z,3.60
2019-04-14T00:12:51.432Z,3.61
2019-04-14T00:15:30.488Z,3.52
2019-04-14T00:17:50.434Z,3.48
2019-04-14T00:20:19.025Z,3.48
2019-04-14T00:22:47.605Z,3.51
2019-04-14T00:25:17.419Z,3.46
2019-04-14T00:27:45.690Z,3.48
2019-04-14T00:30:16.504Z,3.52
2019-04-14T00:32:46.588Z,3.52
2019-04-14T00:35:16.986Z,3.52
2019-04-14T00:38:04.908Z,3.48
2019-04-14T00:40:37.146Z,3.47
2019-04-14T00:43:19.968Z,3.48
2019-04-14T00:45:53.502Z,3.46
2019-04-14T00:48:22.575Z,3.48
2019-04-14T00:50:51.765Z,3.49
2019-04-14T00:53:20.777Z,3.51
2019-04-14T00:55:49.139Z,3.58
2019-04-14T00:58:17.336Z,3.66
2019-04-14T01:00:45.540Z,3.73
2019-04-14T01:03:13.730Z,3.81
2019-04-14T01:05:41.932Z,3.92
2019-04-14T01:08:10.115Z,3.95
2019-04-14T01:10:38.998Z,3.96
2019-04-14T01:13:10.754Z,4.05
2019-04-14T01:15:48.091Z,4.10
2019-04-14T01:18:07.916Z,4.08
2019-04-14T01:20:36.437Z,4.08
2019-04-14T01:23:04.765Z,4.16
2019-04-14T01:25:34.543Z,4.19
2019-04-14T01:28:03.175Z,4.20
2019-04-14T01:30:32.634Z,4.16
2019-04-14T01:33:01.134Z,4.07
2019-04-14T01:35:29.386Z,4.07
2019-04-14T01:37:57.567Z,4.10
2019-04-14T01:40:26.993Z,4.11
2019-04-14T01:42:55.313Z,4.09
2019-04-14T01:45:23.510Z,4.09
2019-04-14T01:47:51.709Z,4.08
2019-04-14T01:50:21.527Z,4.12
2019-04-14T01:52:54.452Z,4.13
2019-04-14T01:55:24.649Z,4.01
2019-04-14T01:58:12.313Z,3.84
2019-04-14T02:00:49.144Z,3.75
2019-04-14T02:03:17.618Z,3.71
2019-04-14T02:05:45.806Z,3.74
2019-04-14T02:08:14.002Z,3.74
2019-04-14T02:10:43.449Z,3.78
2019-04-14T02:13:11.749Z,3.82
2019-04-14T02:15:39.931Z,3.83
2019-04-14T02:18:08.131Z,3.90
2019-04-14T02:20:36.331Z,3.97
2019-04-14T02:23:05.994Z,4.01
2019-04-14T02:25:34.318Z,4.05
2019-04-14T02:28:02.851Z,4.11
2019-04-14T02:30:38.924Z,4.10
2019-04-14T02:33:37.765Z,4.16
2019-04-14T02:43:30.252Z,4.10
2019-04-14T02:45:59.688Z,4.04
2019-04-14T02:50:56.263Z,3.96
2019-04-14T02:53:36.665Z,3.96
2019-04-14T02:56:08.295Z,4.05
2019-04-14T02:58:50.004Z,3.91
2019-04-14T03:01:09.967Z,3.91
2019-04-14T03:05:59.324Z,3.87
2019-04-14T03:08:31.354Z,3.83
2019-04-14T03:10:53.577Z,3.82
2019-04-14T03:13:30.742Z,3.84
2019-04-14T03:16:04.088Z,3.83
2019-04-14T03:18:38.171Z,3.80
2019-04-14T03:21:13.424Z,3.84
2019-04-14T03:23:48.688Z,3.91
2019-04-14T03:26:18.473Z,4.01
2019-04-14T03:28:51.623Z,4.05
2019-04-14T03:39:00.548Z,4.40
2019-04-14T03:41:30.109Z,4.50
2019-04-14T03:43:46.329Z,4.50
2019-04-14T03:46:41.529Z,4.45
2019-04-14T03:51:34.056Z,4.21
2019-04-14T03:53:54.124Z,4.24
2019-04-14T03:56:07.128Z,4.10
2019-04-14T03:58:33.541Z,4.14
2019-04-14T04:01:02.475Z,4.09
2019-04-14T04:03:30.645Z,4.09
2019-04-14T04:05:59.086Z,4.15
2019-04-14T04:08:27.281Z,4.22
2019-04-14T04:10:57.586Z,4.09
2019-04-14T04:13:26.165Z,4.12
2019-04-14T04:15:56.234Z,4.15
2019-04-14T04:18:26.588Z,4.12
2019-04-14T04:20:59.138Z,4.06
2019-04-14T04:23:31.668Z,4.06
2019-04-14T04:26:14.670Z,3.96
2019-04-14T04:29:00.605Z,3.96
2019-04-14T04:31:39.618Z,3.89
2019-04-14T04:34:09.838Z,3.84
2019-04-14T04:36:55.312Z,3.75
2019-04-14T04:39:28.056Z,3.69
2019-04-14T04:41:56.319Z,3.75
2019-04-14T04:44:24.779Z,3.65
2019-04-14T04:46:53.071Z,3.78
2019-04-14T04:49:24.842Z,3.70
2019-04-14T04:51:52.941Z,3.81
2019-04-14T04:54:21.291Z,3.74
2019-04-14T04:56:49.467Z,3.56
2019-04-14T04:59:17.643Z,3.76
2019-04-14T05:01:45.844Z,3.75
2019-04-14T05:04:14.044Z,3.72
2019-04-14T05:07:01.328Z,3.88
2019-04-14T05:09:38.956Z,3.73
2019-04-14T05:12:18.018Z,3.79
2019-04-14T05:15:03.566Z,3.66
2019-04-14T05:17:34.355Z,3.56
2019-04-14T05:20:03.177Z,3.59
2019-04-14T05:22:31.578Z,3.72
2019-04-14T05:24:59.758Z,3.85
2019-04-14T05:27:28.284Z,3.83
2019-04-14T05:29:56.486Z,3.94
2019-04-14T05:32:24.670Z,3.97
2019-04-14T05:34:52.865Z,4.12
2019-04-14T05:37:21.060Z,4.26
2019-04-14T05:39:50.419Z,4.36
2019-04-14T05:42:22.049Z,4.51
2019-04-14T05:44:49.454Z,4.60
2019-04-14T05:47:17.806Z,4.76
2019-04-14T05:49:50.078Z,4.91
2019-04-14T05:52:16.379Z,4.87
2019-04-14T05:54:44.744Z,4.99
2019-04-14T05:57:13.392Z,5.16
2019-04-14T05:59:41.874Z,5.33
2019-04-14T06:02:11.463Z,5.17
2019-04-14T06:04:39.865Z,5.48
2019-04-14T06:07:08.356Z,5.45
2019-04-14T06:09:36.551Z,5.66
2019-04-14T06:12:04.746Z,5.72
2019-04-14T06:14:32.946Z,5.74
2019-04-14T06:17:01.768Z,5.81
2019-04-14T06:19:37.013Z,5.89
2019-04-14T06:22:00.159Z,6.06
2019-04-14T06:24:28.743Z,5.94
2019-04-14T06:26:57.222Z,5.94
2019-04-14T06:29:25.426Z,6.12
2019-04-14T06:31:58.186Z,6.15
2019-04-14T06:34:28.106Z,6.21
2019-04-14T06:36:58.218Z,6.52
2019-04-14T06:39:31.114Z,6.72
2019-04-14T06:41:59.570Z,6.73
2019-04-14T06:44:27.769Z,6.92
2019-04-14T06:46:55.952Z,6.75
2019-04-14T06:49:24.152Z,6.57
2019-04-14T06:51:52.576Z,6.71
2019-04-14T06:54:20.788Z,6.86
2019-04-14T06:56:49.341Z,6.93
2019-04-14T06:59:17.520Z,6.87
2019-04-14T07:01:45.727Z,6.99
2019-04-14T07:04:13.897Z,7.19
2019-04-14T07:06:42.097Z,7.38
2019-04-14T07:09:10.274Z,7.72
2019-04-14T07:11:38.775Z,7.84
2019-04-14T07:14:07.259Z,7.99
2019-04-14T07:16:35.737Z,7.75
2019-04-14T07:19:04.322Z,7.83
2019-04-14T07:21:32.522Z,8.04
2019-04-14T07:24:01.524Z,8.21
2019-04-14T07:26:29.806Z,8.37
2019-04-14T07:28:58.039Z,8.63
2019-04-14T07:31:46.378Z,8.85
2019-04-14T07:34:22.036Z,8.73
2019-04-14T07:36:57.874Z,9.15
2019-04-14T07:39:42.646Z,9.25
2019-04-14T07:42:18.911Z,9.89
2019-04-14T07:44:54.826Z,9.97
2019-04-14T07:47:25.395Z,10.10
2019-04-14T07:50:14.018Z,10.74
2019-04-14T07:52:44.577Z,10.58
2019-04-14T07:55:20.807Z,10.50
2019-04-14T07:57:50.972Z,10.41
2019-04-14T08:00:32.352Z,10.27
2019-04-14T08:03:14.342Z,10.63
2019-04-14T08:05:44.168Z,10.40
2019-04-14T08:08:12.350Z,11.02
2019-04-14T08:10:40.561Z,11.14
2019-04-14T08:13:08.736Z,11.13
2019-04-14T08:15:37.244Z,11.29
2019-04-14T08:18:05.450Z,11.64
2019-04-14T08:20:35.106Z,11.61
2019-04-14T08:23:03.298Z,11.26
2019-04-14T08:25:31.511Z,12.07
2019-04-14T08:27:59.725Z,12.95
2019-04-14T08:30:28.330Z,12.83
2019-04-14T08:32:56.817Z,12.22
2019-04-14T08:35:25.096Z,12.62
2019-04-14T08:37:53.294Z,13.52
2019-04-14T08:40:21.742Z,14.63
2019-04-14T08:42:51.863Z,14.68
2019-04-14T08:45:36.390Z,14.86
2019-04-14T08:48:15.430Z,15.32
2019-04-14T08:51:00.571Z,14.58
2019-04-14T08:53:42.915Z,14.80
2019-04-14T08:56:28.060Z,14.49
2019-04-14T08:59:00.451Z,14.98
2019-04-14T09:01:48.398Z,15.06
2019-04-14T09:04:21.690Z,15.63
2019-04-14T09:06:51.525Z,15.85
2019-04-14T09:09:30.378Z,15.15
2019-04-14T09:12:00.198Z,16.04
2019-04-14T09:14:28.399Z,17.11
2019-04-14T09:16:56.887Z,17.68
2019-04-14T09:19:25.374Z,17.59
2019-04-14T09:21:53.578Z,17.31
2019-04-14T09:24:21.769Z,16.99
2019-04-14T09:26:49.971Z,17.48
2019-04-14T09:29:18.221Z,17.93
2019-04-14T09:31:46.430Z,18.03
2019-04-14T09:34:14.608Z,18.52
2019-04-14T09:36:42.808Z,19.03
2019-04-14T09:39:11.001Z,18.80
2019-04-14T09:41:39.846Z,19.84
2019-04-14T09:44:08.322Z,20.88
2019-04-14T09:46:36.502Z,19.96
2019-04-14T09:49:04.979Z,21.21
2019-04-14T09:51:33.166Z,20.69
2019-04-14T09:54:02.040Z,20.43
2019-04-14T09:56:30.217Z,20.55
2019-04-14T09:58:58.689Z,20.42
2019-04-14T10:01:26.950Z,21.34
2019-04-14T10:03:55.449Z,20.89
2019-04-14T10:06:23.638Z,19.81
2019-04-14T10:08:51.918Z,20.28
2019-04-14T10:11:20.174Z,21.24
2019-04-14T10:13:48.362Z,21.49
2019-04-14T10:16:16.826Z,21.84
2019-04-14T10:18:45.306Z,21.16
2019-04-14T10:21:17.672Z,20.73
2019-04-14T10:23:43.695Z,21.15
2019-04-14T10:26:11.897Z,20.49
2019-04-14T10:28:40.106Z,20.67
2019-04-14T10:31:08.282Z,19.75
2019-04-14T10:33:36.803Z,18.93
2019-04-14T10:36:05.382Z,17.69
2019-04-14T10:38:33.868Z,17.93
2019-04-14T10:41:02.068Z,18.78
2019-04-14T10:43:30.242Z,18.90
2019-04-14T10:45:58.809Z,18.78
2019-04-14T10:48:26.988Z,17.56
2019-04-14T10:50:55.163Z,17.33
2019-04-14T10:53:23.371Z,17.46
2019-04-14T10:55:51.562Z,17.33
2019-04-14T10:58:19.762Z,17.10
2019-04-14T11:00:48.048Z,17.27
2019-04-14T11:03:16.232Z,16.37
2019-04-14T11:05:46.330Z,15.87
2019-04-14T11:08:14.932Z,16.94
2019-04-14T11:10:43.391Z,17.40
2019-04-14T11:13:11.866Z,18.38
2019-04-14T11:15:40.079Z,17.62
2019-04-14T11:18:08.278Z,18.14
2019-04-14T11:20:36.469Z,18.53
2019-04-14T11:23:04.979Z,18.71
2019-04-14T11:25:33.165Z,19.09
2019-04-14T11:28:01.782Z,18.36
2019-04-14T11:30:29.949Z,18.59
2019-04-14T11:33:08.705Z,18.22
2019-04-14T11:35:38.522Z,16.43
2019-04-14T11:38:11.285Z,17.09
2019-04-14T11:40:44.079Z,17.38
2019-04-14T11:43:12.264Z,17.41
2019-04-14T11:45:40.462Z,16.68
2019-04-14T11:48:08.925Z,16.71
2019-04-14T11:50:37.134Z,17.31
2019-04-14T11:53:05.574Z,17.38
2019-04-14T11:55:34.246Z,17.04
2019-04-14T11:58:02.743Z,17.59
2019-04-14T12:00:32.584Z,17.20
2019-04-14T12:03:18.568Z,17.04
2019-04-14T12:05:57.878Z,16.66
2019-04-14T12:08:33.701Z,16.64
2019-04-14T12:11:02.166Z,16.97
2019-04-14T12:13:30.339Z,17.14
2019-04-14T12:15:58.521Z,17.11
2019-04-14T12:18:26.723Z,16.18
2019-04-14T12:20:54.917Z,16.21
2019-04-14T12:23:23.379Z,16.73
2019-04-14T12:26:04.470Z,17.22
2019-04-14T12:28:21.969Z,16.29
2019-04-14T12:30:51.164Z,16.31
2019-04-14T12:33:19.762Z,16.20
2019-04-14T12:35:47.958Z,15.66
2019-04-14T12:38:16.218Z,14.53
2019-04-14T12:40:44.416Z,15.34
2019-04-14T12:43:14.498Z,15.83
2019-04-14T12:46:00.799Z,16.08
2019-04-14T12:48:30.667Z,16.41
2019-04-14T12:51:03.167Z,15.50
2019-04-14T12:53:31.667Z,16.09
2019-04-14T12:55:59.862Z,16.09
2019-04-14T12:58:29.702Z,16.37
2019-04-14T13:00:59.542Z,16.16
2019-04-14T13:03:27.722Z,15.97
2019-04-14T13:05:55.925Z,16.51
2019-04-14T13:08:24.398Z,16.51
2019-04-14T13:10:52.586Z,16.45
2019-04-14T13:13:20.777Z,16.43
2019-04-14T13:15:49.321Z,16.29
2019-04-14T13:18:17.498Z,16.48
2019-04-14T13:20:45.703Z,16.80
2019-04-14T13:23:13.881Z,16.81
2019-04-14T13:25:42.077Z,16.88
2019-04-14T13:28:10.267Z,16.56
2019-04-14T13:30:40.336Z,16.20
2019-04-14T13:33:08.512Z,16.53
2019-04-14T13:35:37.067Z,17.04
2019-04-14T13:38:05.639Z,17.43
2019-04-14T13:40:33.836Z,17.77
2019-04-14T13:43:03.217Z,18.02
2019-04-14T13:45:31.690Z,17.78
2019-04-14T13:48:00.174Z,17.35
2019-04-14T13:50:28.359Z,16.30
2019-04-14T13:52:56.548Z,16.78
2019-04-14T13:55:24.739Z,15.78
2019-04-14T13:57:52.921Z,15.86
2019-04-14T14:00:22.062Z,15.63
2019-04-14T14:02:50.242Z,16.33
2019-04-14T14:05:18.717Z,17.22
2019-04-14T14:07:46.914Z,17.01
2019-04-14T14:10:15.780Z,17.68
2019-04-14T14:12:48.522Z,17.83
2019-04-14T14:15:18.344Z,17.38
2019-04-14T14:17:54.042Z,16.94
2019-04-14T14:20:38.878Z,16.94
2019-04-14T14:23:09.003Z,16.72
2019-04-14T14:25:50.809Z,16.83
2019-04-14T14:28:18.998Z,16.66
2019-04-14T14:30:47.194Z,16.71
2019-04-14T14:33:15.397Z,16.13
2019-04-14T14:35:43.570Z,15.66
2019-04-14T14:38:11.767Z,15.70
2019-04-14T14:40:39.939Z,16.21
2019-04-14T14:43:08.135Z,16.48
2019-04-14T14:45:43.863Z,16.56
2019-04-14T14:48:13.702Z,16.05
2019-04-14T14:50:43.790Z,15.66
2019-04-14T14:53:12.622Z,15.06
2019-04-14T14:55:41.154Z,14.81
2019-04-14T14:58:09.362Z,14.63
2019-04-14T15:00:37.538Z,14.94
2019-04-14T15:03:05.783Z,15.76
2019-04-14T15:05:33.979Z,16.25
2019-04-14T15:08:02.430Z,16.32
2019-04-14T15:10:30.703Z,16.07
2019-04-14T15:12:58.891Z,16.28
2019-04-14T15:15:27.087Z,16.40
2019-04-14T15:17:55.531Z,16.49
2019-04-14T15:20:24.017Z,16.46
2019-04-14T15:22:52.410Z,16.59
2019-04-14T15:25:20.760Z,15.93
2019-04-14T15:27:48.961Z,15.29
2019-04-14T15:30:18.779Z,15.33
2019-04-14T15:32:47.049Z,15.20
2019-04-14T15:35:15.515Z,15.32
2019-04-14T15:37:43.711Z,15.21
2019-04-14T15:40:12.566Z,15.11
2019-04-14T15:42:41.046Z,15.56
2019-04-14T15:45:13.760Z,15.13
2019-04-14T15:47:40.980Z,14.94
2019-04-14T15:50:09.622Z,14.71
2019-04-14T15:52:37.802Z,14.99
2019-04-14T15:55:06.748Z,15.06
2019-04-14T15:57:39.506Z,15.19
2019-04-14T16:00:11.371Z,15.18
2019-04-14T16:02:43.886Z,14.95
2019-04-14T16:05:25.531Z,14.77
2019-04-14T16:08:04.425Z,14.89
2019-04-14T16:10:34.315Z,14.50
2019-04-14T16:13:20.779Z,14.37
2019-04-14T16:16:06.725Z,14.26
2019-04-14T16:18:45.560Z,13.98
2019-04-14T16:21:13.823Z,14.06
2019-04-14T16:23:50.386Z,13.79
2019-04-14T16:26:19.914Z,13.78
2019-04-14T16:28:49.755Z,13.95
2019-04-14T16:31:36.351Z,13.75
2019-04-14T16:34:22.313Z,13.30
2019-04-14T16:36:51.988Z,13.26
2019-04-14T16:39:20.165Z,13.36
2019-04-14T16:41:48.706Z,13.52
2019-04-14T16:44:16.882Z,13.48
2019-04-14T16:46:45.078Z,13.38
2019-04-14T16:49:13.258Z,13.28
2019-04-14T16:51:43.101Z,13.33
2019-04-14T16:54:29.432Z,13.04
2019-04-14T16:56:59.279Z,13.21
2019-04-14T16:59:27.458Z,13.16
2019-04-14T17:01:55.710Z,12.88
2019-04-14T17:04:23.921Z,12.81
2019-04-14T17:06:52.118Z,12.70
2019-04-14T17:09:20.303Z,12.69
2019-04-14T17:11:48.874Z,12.42
2019-04-14T17:14:21.641Z,12.37
2019-04-14T17:17:03.978Z,12.10
2019-04-14T17:19:50.433Z,11.94
2019-04-14T17:22:29.462Z,12.00
2019-04-14T17:25:05.417Z,11.94
2019-04-14T17:27:41.117Z,12.04
2019-04-14T17:30:12.180Z,11.96
2019-04-14T17:32:58.536Z,12.05
2019-04-14T17:35:28.360Z,12.05
2019-04-14T17:38:07.391Z,11.98
2019-04-14T17:40:43.042Z,11.87
2019-04-14T17:43:25.140Z,11.71
2019-04-14T17:46:01.029Z,11.83
2019-04-14T17:48:36.942Z,11.65
2019-04-14T17:51:13.111Z,11.46
2019-04-14T17:53:48.465Z,11.40
2019-04-14T17:56:21.346Z,11.27
2019-04-14T17:58:57.391Z,11.25
2019-04-14T18:01:33.155Z,11.15
2019-04-14T18:04:03.258Z,11.25
2019-04-14T18:06:36.049Z,11.23
2019-04-14T18:09:10.369Z,11.05
2019-04-14T18:11:40.178Z,11.09
2019-04-14T18:14:10.023Z,10.86
2019-04-14T18:16:42.555Z,10.78
2019-04-14T18:19:15.538Z,10.79
2019-04-14T18:21:44.381Z,10.87
2019-04-14T18:24:13.015Z,10.91
2019-04-14T18:26:41.263Z,10.56
2019-04-14T18:29:27.639Z,10.63
2019-04-14T18:31:57.464Z,10.50
2019-04-14T18:34:27.282Z,10.44
2019-04-14T18:36:57.434Z,10.32
2019-04-14T18:39:30.234Z,10.51
2019-04-14T18:42:18.144Z,10.50
2019-04-14T18:45:03.162Z,10.46
2019-04-14T18:47:38.697Z,10.28
2019-04-14T18:50:24.342Z,10.22
2019-04-14T18:53:09.514Z,10.24
2019-04-14T18:55:48.630Z,10.26
2019-04-14T18:58:18.450Z,10.14
2019-04-14T19:00:50.998Z,10.10
2019-04-14T19:03:19.194Z,10.12
2019-04-14T19:05:47.373Z,10.12
2019-04-14T19:08:15.959Z,10.09
2019-04-14T19:10:46.089Z,10.02
2019-04-14T19:13:24.808Z,9.69
2019-04-14T19:15:54.642Z,9.67
2019-04-14T19:18:25.820Z,9.79
2019-04-14T19:20:55.872Z,9.79
2019-04-14T19:23:24.055Z,9.88
2019-04-14T19:25:52.522Z,9.78
2019-04-14T19:28:20.698Z,9.73
2019-04-14T19:30:49.182Z,9.68
2019-04-14T19:33:17.374Z,9.62
2019-04-14T19:35:45.555Z,9.57
2019-04-14T19:38:13.726Z,9.48
2019-04-14T19:40:42.193Z,9.37
2019-04-14T19:43:22.921Z,9.23
2019-04-14T19:45:40.269Z,9.10
2019-04-14T19:48:08.455Z,9.12
2019-04-14T19:50:36.915Z,9.16
2019-04-14T19:53:05.099Z,9.09
2019-04-14T19:55:33.290Z,9.19
2019-04-14T19:58:01.743Z,9.16
2019-04-14T20:00:29.945Z,9.13
2019-04-14T20:02:58.120Z,9.12
2019-04-14T20:05:26.296Z,9.10
2019-04-14T20:07:54.482Z,9.01
2019-04-14T20:10:22.683Z,8.91
2019-04-14T20:12:51.190Z,8.96
2019-04-14T20:15:24.193Z,8.94
2019-04-14T20:17:54.027Z,8.93
2019-04-14T20:20:23.839Z,8.82
2019-04-14T20:23:00.009Z,8.75
2019-04-14T20:25:33.990Z,8.74
2019-04-14T20:28:01.730Z,8.76
2019-04-14T20:30:37.027Z,8.72
2019-04-14T20:33:05.211Z,8.70
2019-04-14T20:35:34.534Z,8.74
2019-04-14T20:38:03.036Z,8.62
2019-04-14T20:40:31.227Z,8.63
2019-04-14T20:42:59.679Z,8.58
2019-04-14T20:45:28.159Z,8.59
2019-04-14T20:47:56.748Z,8.58
2019-04-14T20:50:25.226Z,8.53
2019-04-14T20:52:53.703Z,8.53
2019-04-14T20:55:21.906Z,8.45
2019-04-14T20:57:50.355Z,8.45
2019-04-14T21:00:20.716Z,8.48
2019-04-14T21:02:56.633Z,8.31
2019-04-14T21:05:26.474Z,8.25
2019-04-14T21:07:56.284Z,8.21
2019-04-14T21:10:28.834Z,8.18
2019-04-14T21:13:01.441Z,8.20
2019-04-14T21:15:31.533Z,8.15
2019-04-14T21:18:01.673Z,8.12
2019-04-14T21:20:40.571Z,8.08
2019-04-14T21:23:10.402Z,8.05
2019-04-14T21:25:40.242Z,8.04
2019-04-14T21:28:10.050Z,8.06
2019-04-14T21:30:58.010Z,8.02
2019-04-14T21:33:28.296Z,7.94
2019-04-14T21:35:58.483Z,7.88
2019-04-14T21:38:40.054Z,7.83
2019-04-14T21:41:09.899Z,7.67
2019-04-14T21:43:38.079Z,7.58
2019-04-14T21:46:06.262Z,7.52
2019-04-14T21:48:34.458Z,7.39
2019-04-14T21:51:02.654Z,7.31
2019-04-14T21:53:30.826Z,7.24
2019-04-14T21:55:59.030Z,7.18
2019-04-14T21:58:34.695Z,7.13
2019-04-14T22:01:34.146Z,7.06
2019-04-14T22:04:03.988Z,6.93
2019-04-14T22:06:33.794Z,6.88
2019-04-14T22:09:01.990Z,6.86
2019-04-14T22:11:30.449Z,6.85
2019-04-14T22:13:58.934Z,6.82
2019-04-14T22:16:27.777Z,6.83
2019-04-14T22:18:55.965Z,6.83
2019-04-14T22:21:24.158Z,6.87
2019-04-14T22:24:01.193Z,6.96
2019-04-14T22:26:26.188Z,7.05
2019-04-14T22:28:52.191Z,7.12
2019-04-14T22:31:20.651Z,7.22
2019-04-14T22:33:49.134Z,7.29
2019-04-14T22:36:17.329Z,7.41
2019-04-14T22:38:45.522Z,7.51
2019-04-14T22:41:14.058Z,7.59
2019-04-14T22:43:42.278Z,7.68
2019-04-14T22:46:10.422Z,7.82
2019-04-14T22:48:39.535Z,7.92
2019-04-14T22:51:08.183Z,8.02
2019-04-14T22:53:36.383Z,8.10
2019-04-14T22:56:04.841Z,8.13
2019-04-14T22:58:33.013Z,8.17
2019-04-14T23:01:06.074Z,8.16
2019-04-14T23:03:35.959Z,8.18
2019-04-14T23:06:21.861Z,-135.60
2019-04-14T23:08:54.615Z,-135.60
2019-04-14T23:11:42.567Z,-135.60
2019-04-14T23:14:14.847Z,-135.60
2019-04-14T23:17:02.578Z,-135.60
2019-04-14T23:19:35.111Z,-135.60
2019-04-14T23:22:19.919Z,-135.60
2019-04-14T23:24:48.807Z,-135.60
2019-04-14T23:27:17.327Z,-135.60
2019-04-14T23:29:45.533Z,-135.60
2019-04-14T23:32:13.978Z,-135.60
2019-04-14T23:34:42.183Z,-135.60
2019-04-14T23:37:10.635Z,-135.60
2019-04-14T23:39:39.111Z,-135.60
2019-04-14T23:42:07.302Z,-135.60
2019-04-14T23:44:35.491Z,-135.60
2019-04-14T23:47:03.704Z,-135.60
2019-04-14T23:49:31.910Z,-135.60
2019-04-14T23:52:00.391Z,-135.60
2019-04-14T23:54:28.866Z,-135.60
2019-04-14T23:57:05.302Z,-135.60
2019-04-14T23:59:27.062Z,-135.60
